createdAt,value
2023-03-30T00:00:11.647Z,986.08
2023-03-30T00:01:11.589Z,986.05
2023-03-30T00:02:11.567Z,986.02
2023-03-30T00:03:11.619Z,986.05
2023-03-30T00:04:11.716Z,985.96
2023-03-30T00:05:11.713Z,985.96
2023-03-30T00:06:11.517Z,985.94
2023-03-30T00:07:11.545Z,985.95
2023-03-30T00:08:11.500Z,985.96
2023-03-30T00:09:11.489Z,986.00
2023-03-30T00:10:11.510Z,985.91
2023-03-30T00:11:11.675Z,985.88
2023-03-30T00:12:11.466Z,985.92
2023-03-30T00:13:11.496Z,985.85
2023-03-30T00:14:11.442Z,985.87
2023-03-30T00:15:11.462Z,985.85
2023-03-30T00:16:11.480Z,985.92
2023-03-30T00:17:11.423Z,985.88
2023-03-30T00:18:11.422Z,985.89
2023-03-30T00:19:11.451Z,985.86
2023-03-30T00:20:11.428Z,985.84
2023-03-30T00:21:11.403Z,985.94
2023-03-30T00:22:11.379Z,985.93
2023-03-30T00:23:11.346Z,985.89
2023-03-30T00:24:11.375Z,985.90
2023-03-30T00:25:11.345Z,985.92
2023-03-30T00:26:11.315Z,985.93
2023-03-30T00:27:11.331Z,985.91
2023-03-30T00:28:11.315Z,985.88
2023-03-30T00:29:11.304Z,985.91
2023-03-30T00:30:11.280Z,985.85
2023-03-30T00:31:11.297Z,985.78
2023-03-30T00:32:11.311Z,985.76
2023-03-30T00:33:11.307Z,985.71
2023-03-30T00:34:11.269Z,985.75
2023-03-30T00:35:11.224Z,985.69
2023-03-30T00:36:11.491Z,985.65
2023-03-30T00:37:11.239Z,985.66
2023-03-30T00:38:11.194Z,985.59
2023-03-30T00:39:11.211Z,985.56
2023-03-30T00:40:11.212Z,985.51
2023-03-30T00:41:11.204Z,985.53
2023-03-30T00:42:11.182Z,985.48
2023-03-30T00:43:11.174Z,985.43
2023-03-30T00:44:11.131Z,985.40
2023-03-30T00:45:11.147Z,985.37
2023-03-30T00:46:11.181Z,985.37
2023-03-30T00:47:11.148Z,985.39
2023-03-30T00:48:11.188Z,985.36
2023-03-30T00:49:11.096Z,985.31
2023-03-30T00:50:11.094Z,985.28
2023-03-30T00:51:11.114Z,985.25
2023-03-30T00:52:11.099Z,985.30
2023-03-30T00:53:11.096Z,985.44
2023-03-30T00:54:11.114Z,985.49
2023-03-30T00:55:11.068Z,985.51
2023-03-30T00:56:11.027Z,985.52
2023-03-30T00:57:11.075Z,985.52
2023-03-30T00:58:11.020Z,985.46
2023-03-30T00:59:11.039Z,985.51
2023-03-30T01:00:11.011Z,985.48
2023-03-30T01:01:11.023Z,985.48
2023-03-30T01:02:11.088Z,985.49
2023-03-30T01:03:11.074Z,985.42
2023-03-30T01:04:11.079Z,985.41
2023-03-30T01:05:10.957Z,985.42
2023-03-30T01:06:10.948Z,985.39
2023-03-30T01:07:10.916Z,985.39
2023-03-30T01:08:10.916Z,985.36
2023-03-30T01:09:10.939Z,985.34
2023-03-30T01:10:10.882Z,985.35
2023-03-30T01:11:10.892Z,985.35
2023-03-30T01:12:10.865Z,985.25
2023-03-30T01:13:11.064Z,985.28
2023-03-30T01:14:10.868Z,985.26
2023-03-30T01:15:10.839Z,985.27
2023-03-30T01:16:10.841Z,985.23
2023-03-30T01:17:10.821Z,985.25
2023-03-30T01:18:10.889Z,985.28
2023-03-30T01:19:10.795Z,985.24
2023-03-30T01:20:10.779Z,985.24
2023-03-30T01:21:10.785Z,985.16
2023-03-30T01:22:10.770Z,985.09
2023-03-30T01:23:10.755Z,985.11
2023-03-30T01:24:10.814Z,985.11
2023-03-30T01:25:10.973Z,985.14
2023-03-30T01:26:10.724Z,985.11
2023-03-30T01:27:10.772Z,985.13
2023-03-30T01:28:10.706Z,985.09
2023-03-30T01:29:10.698Z,985.04
2023-03-30T01:30:10.705Z,984.98
2023-03-30T01:31:10.908Z,984.98
2023-03-30T01:32:10.673Z,984.98
2023-03-30T01:33:10.693Z,985.01
2023-03-30T01:34:10.665Z,984.98
2023-03-30T01:35:10.677Z,984.99
2023-03-30T01:36:10.672Z,984.98
2023-03-30T01:37:10.714Z,984.98
2023-03-30T01:38:10.698Z,984.99
2023-03-30T01:39:10.637Z,984.93
2023-03-30T01:40:10.634Z,984.91
2023-03-30T01:41:10.607Z,984.87
2023-03-30T01:42:10.617Z,984.92
2023-03-30T01:43:10.586Z,984.89
2023-03-30T01:44:10.574Z,984.87
2023-03-30T01:45:10.997Z,984.87
2023-03-30T01:46:10.592Z,984.86
2023-03-30T01:47:10.737Z,984.85
2023-03-30T01:48:10.561Z,984.82
2023-03-30T01:49:10.733Z,984.79
2023-03-30T01:50:10.727Z,984.79
2023-03-30T01:51:10.501Z,984.76
2023-03-30T01:52:10.496Z,984.77
2023-03-30T01:53:10.480Z,984.70
2023-03-30T01:54:10.468Z,984.67
2023-03-30T01:55:10.458Z,984.73
2023-03-30T01:56:10.469Z,984.68
2023-03-30T01:57:10.714Z,984.65
2023-03-30T01:58:10.439Z,984.64
2023-03-30T01:59:10.618Z,984.60
2023-03-30T02:00:10.394Z,984.60
2023-03-30T02:01:10.396Z,984.61
2023-03-30T02:02:10.561Z,984.62
2023-03-30T02:03:10.462Z,984.65
2023-03-30T02:04:10.379Z,984.63
2023-03-30T02:05:10.360Z,984.60
2023-03-30T02:06:10.341Z,984.62
2023-03-30T02:07:10.392Z,984.61
2023-03-30T02:08:10.321Z,984.54
2023-03-30T02:09:10.311Z,984.55
2023-03-30T02:10:10.312Z,984.58
2023-03-30T02:11:10.300Z,984.59
2023-03-30T02:12:10.290Z,984.62
2023-03-30T02:13:10.334Z,984.61
2023-03-30T02:14:10.303Z,984.59
2023-03-30T02:15:10.466Z,984.56
2023-03-30T02:16:10.337Z,984.56
2023-03-30T02:17:10.447Z,984.56
2023-03-30T02:18:10.333Z,984.56
2023-03-30T02:19:10.236Z,984.59
2023-03-30T02:20:10.220Z,984.61
2023-03-30T02:21:10.427Z,984.57
2023-03-30T02:22:10.196Z,984.54
2023-03-30T02:23:10.231Z,984.58
2023-03-30T02:24:10.190Z,984.55
2023-03-30T02:25:10.194Z,984.52
2023-03-30T02:26:10.164Z,984.53
2023-03-30T02:27:10.150Z,984.52
2023-03-30T02:28:10.163Z,984.49
2023-03-30T02:29:10.169Z,984.55
2023-03-30T02:30:10.171Z,984.57
2023-03-30T02:31:10.143Z,984.57
2023-03-30T02:32:10.135Z,984.53
2023-03-30T02:33:10.156Z,984.63
2023-03-30T02:34:10.052Z,984.66
2023-03-30T02:35:10.062Z,984.70
2023-03-30T02:36:10.158Z,984.68
2023-03-30T02:37:10.029Z,984.67
2023-03-30T02:38:10.039Z,984.73
2023-03-30T02:39:11.360Z,984.72
2023-03-30T02:40:10.029Z,984.73
2023-03-30T02:41:10.011Z,984.73
2023-03-30T02:42:10.040Z,984.75
2023-03-30T02:43:09.976Z,984.78
2023-03-30T02:44:09.972Z,984.76
2023-03-30T02:45:09.997Z,984.75
2023-03-30T02:46:09.978Z,984.73
2023-03-30T02:47:09.972Z,984.72
2023-03-30T02:48:10.009Z,984.74
2023-03-30T02:49:09.932Z,984.72
2023-03-30T02:50:09.910Z,984.74
2023-03-30T02:51:09.910Z,984.76
2023-03-30T02:52:09.925Z,984.71
2023-03-30T02:53:09.967Z,984.69
2023-03-30T02:54:09.887Z,984.70
2023-03-30T02:55:09.869Z,984.67
2023-03-30T02:56:09.874Z,984.68
2023-03-30T02:57:09.911Z,984.63
2023-03-30T02:58:09.826Z,984.62
2023-03-30T02:59:09.839Z,984.63
2023-03-30T03:00:09.824Z,984.64
2023-03-30T03:01:09.874Z,984.62
2023-03-30T03:02:09.886Z,984.62
2023-03-30T03:03:09.935Z,984.62
2023-03-30T03:04:09.801Z,984.62
2023-03-30T03:05:09.764Z,984.62
2023-03-30T03:06:09.766Z,984.62
2023-03-30T03:07:09.759Z,984.63
2023-03-30T03:08:09.736Z,984.57
2023-03-30T03:09:09.734Z,984.59
2023-03-30T03:10:09.711Z,984.58
2023-03-30T03:11:09.720Z,984.63
2023-03-30T03:12:09.938Z,984.66
2023-03-30T03:13:09.670Z,984.71
2023-03-30T03:14:09.682Z,984.70
2023-03-30T03:15:09.850Z,984.66
2023-03-30T03:16:09.648Z,984.66
2023-03-30T03:17:09.866Z,984.63
2023-03-30T03:18:09.650Z,984.68
2023-03-30T03:19:09.658Z,984.68
2023-03-30T03:20:09.604Z,984.74
2023-03-30T03:21:09.603Z,984.69
2023-03-30T03:22:09.582Z,984.69
2023-03-30T03:23:09.585Z,984.70
2023-03-30T03:24:09.568Z,984.66
2023-03-30T03:25:09.571Z,984.63
2023-03-30T03:26:09.562Z,984.63
2023-03-30T03:27:09.607Z,984.62
2023-03-30T03:28:09.536Z,984.51
2023-03-30T03:29:09.537Z,984.50
2023-03-30T03:30:09.520Z,984.45
2023-03-30T03:31:09.537Z,984.46
2023-03-30T03:32:09.561Z,984.49
2023-03-30T03:33:09.541Z,984.50
2023-03-30T03:34:09.477Z,984.52
2023-03-30T03:35:09.472Z,984.53
2023-03-30T03:36:09.466Z,984.56
2023-03-30T03:37:09.440Z,984.53
2023-03-30T03:38:09.430Z,984.52
2023-03-30T03:39:09.441Z,984.51
2023-03-30T03:40:09.460Z,984.53
2023-03-30T03:41:09.438Z,984.50
2023-03-30T03:42:09.372Z,984.56
2023-03-30T03:43:09.374Z,984.57
2023-03-30T03:44:09.365Z,984.54
2023-03-30T03:45:09.367Z,984.57
2023-03-30T03:46:09.600Z,984.57
2023-03-30T03:47:09.324Z,984.57
2023-03-30T03:48:09.445Z,984.59
2023-03-30T03:49:09.327Z,984.53
2023-03-30T03:50:09.313Z,984.51
2023-03-30T03:51:09.320Z,984.48
2023-03-30T03:52:09.291Z,984.53
2023-03-30T03:53:09.276Z,984.49
2023-03-30T03:54:09.257Z,984.48
2023-03-30T03:55:09.486Z,984.50
2023-03-30T03:56:09.244Z,984.48
2023-03-30T03:57:09.276Z,984.36
2023-03-30T03:58:09.262Z,984.42
2023-03-30T03:59:09.251Z,984.41
2023-03-30T04:00:09.217Z,984.40
2023-03-30T04:01:09.360Z,984.37
2023-03-30T04:02:09.292Z,984.32
2023-03-30T04:03:09.306Z,984.28
2023-03-30T04:04:09.185Z,984.26
2023-03-30T04:05:09.160Z,984.30
2023-03-30T04:06:09.147Z,984.25
2023-03-30T04:07:09.128Z,984.21
2023-03-30T04:08:09.107Z,984.32
2023-03-30T04:09:09.084Z,984.35
2023-03-30T04:10:09.150Z,984.32
2023-03-30T04:11:09.100Z,984.34
2023-03-30T04:12:09.081Z,984.41
2023-03-30T04:13:09.051Z,984.47
2023-03-30T04:14:09.054Z,984.49
2023-03-30T04:15:09.070Z,984.46
2023-03-30T04:16:09.087Z,984.47
2023-03-30T04:17:09.264Z,984.50
2023-03-30T04:18:09.143Z,984.53
2023-03-30T04:19:09.033Z,984.49
2023-03-30T04:20:08.982Z,984.55
2023-03-30T04:21:08.994Z,984.60
2023-03-30T04:22:08.990Z,984.66
2023-03-30T04:23:08.957Z,984.70
2023-03-30T04:24:08.959Z,984.48
2023-03-30T04:25:08.972Z,984.58
2023-03-30T04:26:08.920Z,984.60
2023-03-30T04:27:08.908Z,984.62
2023-03-30T04:28:08.891Z,984.58
2023-03-30T04:29:08.891Z,984.52
2023-03-30T04:30:08.887Z,984.52
2023-03-30T04:31:09.077Z,984.47
2023-03-30T04:32:08.963Z,984.42
2023-03-30T04:33:08.893Z,984.42
2023-03-30T04:34:08.847Z,984.44
2023-03-30T04:35:08.826Z,984.41
2023-03-30T04:36:09.060Z,984.44
2023-03-30T04:37:08.827Z,984.41
2023-03-30T04:38:08.801Z,984.45
2023-03-30T04:39:08.797Z,984.42
2023-03-30T04:40:08.772Z,984.39
2023-03-30T04:41:08.768Z,984.47
2023-03-30T04:42:08.762Z,984.38
2023-03-30T04:43:08.753Z,984.34
2023-03-30T04:44:08.774Z,984.33
2023-03-30T04:45:08.740Z,984.41
2023-03-30T04:46:08.804Z,984.36
2023-03-30T04:47:08.713Z,984.50
2023-03-30T04:48:08.784Z,984.49
2023-03-30T04:49:08.693Z,984.54
2023-03-30T04:50:08.693Z,984.51
2023-03-30T04:51:08.697Z,984.57
2023-03-30T04:52:08.654Z,984.54
2023-03-30T04:53:08.685Z,984.62
2023-03-30T04:54:08.680Z,984.67
2023-03-30T04:55:08.635Z,984.62
2023-03-30T04:56:08.619Z,984.58
2023-03-30T04:57:08.668Z,984.66
2023-03-30T04:58:08.608Z,984.57
2023-03-30T04:59:08.608Z,984.49
2023-03-30T05:00:08.608Z,984.42
2023-03-30T05:01:08.594Z,984.48
2023-03-30T05:02:08.612Z,984.51
2023-03-30T05:03:08.685Z,984.49
2023-03-30T05:04:08.552Z,984.48
2023-03-30T05:05:08.625Z,984.46
2023-03-30T05:06:08.527Z,984.51
2023-03-30T05:07:08.548Z,984.52
2023-03-30T05:08:08.514Z,984.54
2023-03-30T05:09:08.555Z,984.59
2023-03-30T05:10:08.478Z,984.62
2023-03-30T05:11:08.479Z,984.65
2023-03-30T05:12:08.511Z,984.57
2023-03-30T05:13:08.462Z,984.55
2023-03-30T05:14:08.453Z,984.50
2023-03-30T05:15:08.435Z,984.47
2023-03-30T05:16:08.411Z,984.44
2023-03-30T05:17:08.449Z,984.42
2023-03-30T05:18:08.467Z,984.36
2023-03-30T05:19:08.412Z,984.40
2023-03-30T05:20:08.462Z,984.43
2023-03-30T05:21:08.382Z,984.43
2023-03-30T05:22:08.382Z,984.37
2023-03-30T05:23:08.370Z,984.41
2023-03-30T05:24:08.360Z,984.26
2023-03-30T05:25:08.354Z,984.18
2023-03-30T05:26:08.342Z,984.21
2023-03-30T05:27:08.308Z,984.01
2023-03-30T05:28:08.315Z,983.95
2023-03-30T05:29:08.295Z,983.99
2023-03-30T05:30:08.368Z,983.96
2023-03-30T05:31:08.311Z,983.93
2023-03-30T05:32:08.275Z,983.94
2023-03-30T05:33:08.317Z,983.92
2023-03-30T05:34:08.263Z,983.99
2023-03-30T05:35:08.229Z,983.87
2023-03-30T05:36:08.301Z,983.79
2023-03-30T05:37:08.226Z,983.76
2023-03-30T05:38:08.263Z,983.72
2023-03-30T05:39:08.211Z,983.80
2023-03-30T05:40:08.225Z,983.79
2023-03-30T05:41:08.208Z,983.74
2023-03-30T05:42:08.188Z,983.68
2023-03-30T05:43:09.325Z,983.69
2023-03-30T05:44:08.174Z,983.70
2023-03-30T05:45:08.145Z,983.61
2023-03-30T05:46:08.252Z,983.48
2023-03-30T05:47:08.165Z,983.34
2023-03-30T05:48:08.111Z,983.38
2023-03-30T05:49:08.165Z,983.50
2023-03-30T05:50:08.132Z,983.53
2023-03-30T05:51:08.450Z,983.57
2023-03-30T05:52:08.308Z,983.64
2023-03-30T05:53:08.325Z,983.68
2023-03-30T05:54:08.062Z,983.82
2023-03-30T05:55:08.061Z,983.84
2023-03-30T05:56:08.056Z,983.79
2023-03-30T05:57:08.091Z,983.85
2023-03-30T05:58:08.023Z,983.85
2023-03-30T05:59:08.021Z,983.85
2023-03-30T06:00:08.018Z,983.81
2023-03-30T06:01:07.996Z,983.76
2023-03-30T06:02:10.730Z,983.70
2023-03-30T06:03:08.167Z,983.66
2023-03-30T06:04:08.095Z,983.65
2023-03-30T06:05:07.954Z,983.65
2023-03-30T06:06:07.957Z,983.63
2023-03-30T06:07:07.965Z,983.62
2023-03-30T06:08:07.929Z,983.65
2023-03-30T06:09:07.936Z,983.65
2023-03-30T06:10:07.915Z,983.62
2023-03-30T06:11:07.911Z,983.63
2023-03-30T06:12:07.889Z,983.59
2023-03-30T06:13:08.116Z,983.54
2023-03-30T06:14:07.871Z,983.53
2023-03-30T06:15:07.888Z,983.51
2023-03-30T06:16:07.876Z,983.49
2023-03-30T06:17:07.843Z,983.45
2023-03-30T06:18:07.902Z,983.44
2023-03-30T06:19:07.825Z,983.43
2023-03-30T06:20:07.820Z,983.39
2023-03-30T06:21:07.911Z,983.41
2023-03-30T06:22:07.804Z,983.42
2023-03-30T06:23:07.792Z,983.44
2023-03-30T06:24:07.805Z,983.46
2023-03-30T06:25:07.773Z,983.43
2023-03-30T06:26:07.860Z,983.36
2023-03-30T06:27:07.774Z,983.35
2023-03-30T06:28:07.743Z,983.35
2023-03-30T06:29:07.765Z,983.28
2023-03-30T06:30:07.736Z,983.21
2023-03-30T06:31:07.725Z,983.17
2023-03-30T06:32:07.749Z,983.15
2023-03-30T06:33:07.794Z,983.11
2023-03-30T06:34:07.692Z,983.13
2023-03-30T06:35:07.692Z,983.11
2023-03-30T06:36:07.741Z,983.10
2023-03-30T06:37:07.664Z,983.09
2023-03-30T06:38:07.655Z,983.08
2023-03-30T06:39:07.645Z,983.07
2023-03-30T06:40:07.630Z,983.07
2023-03-30T06:41:07.636Z,983.04
2023-03-30T06:42:07.633Z,983.04
2023-03-30T06:43:07.605Z,983.04
2023-03-30T06:44:07.589Z,983.03
2023-03-30T06:45:07.599Z,983.07
2023-03-30T06:46:07.866Z,983.07
2023-03-30T06:47:07.641Z,983.19
2023-03-30T06:48:07.827Z,983.17
2023-03-30T06:49:07.583Z,983.28
2023-03-30T06:50:07.854Z,983.28
2023-03-30T06:51:07.639Z,983.23
2023-03-30T06:52:08.690Z,983.21
2023-03-30T06:53:07.541Z,983.24
2023-03-30T06:54:07.573Z,983.32
2023-03-30T06:55:07.764Z,983.24
2023-03-30T06:56:07.518Z,983.21
2023-03-30T06:57:07.560Z,983.17
2023-03-30T06:58:07.470Z,983.16
2023-03-30T06:59:07.471Z,983.15
2023-03-30T07:00:07.459Z,983.13
2023-03-30T07:01:07.560Z,983.17
2023-03-30T07:02:07.453Z,983.11
2023-03-30T07:03:07.486Z,983.10
2023-03-30T07:04:07.518Z,983.11
2023-03-30T07:05:07.451Z,983.12
2023-03-30T07:06:07.403Z,983.16
2023-03-30T07:07:07.413Z,983.13
2023-03-30T07:08:07.453Z,983.13
2023-03-30T07:09:07.401Z,983.10
2023-03-30T07:10:07.398Z,983.14
2023-03-30T07:11:07.442Z,983.11
2023-03-30T07:12:07.415Z,983.17
2023-03-30T07:13:07.391Z,983.12
2023-03-30T07:14:07.375Z,983.12
2023-03-30T07:15:07.349Z,983.09
2023-03-30T07:16:07.323Z,983.15
2023-03-30T07:17:07.664Z,983.14
2023-03-30T07:18:07.372Z,983.14
2023-03-30T07:19:07.302Z,983.14
2023-03-30T07:20:07.331Z,983.21
2023-03-30T07:21:07.431Z,983.18
2023-03-30T07:22:07.276Z,983.13
2023-03-30T07:23:07.280Z,983.10
2023-03-30T07:24:07.290Z,983.14
2023-03-30T07:25:07.285Z,983.15
2023-03-30T07:26:07.251Z,983.18
2023-03-30T07:27:07.245Z,983.22
2023-03-30T07:28:07.226Z,983.29
2023-03-30T07:29:07.484Z,983.30
2023-03-30T07:30:20.694Z,983.28
2023-03-30T07:31:07.548Z,983.32
2023-03-30T07:32:07.225Z,983.30
2023-03-30T07:33:07.370Z,983.34
2023-03-30T07:34:07.162Z,983.40
2023-03-30T07:35:07.405Z,983.45
2023-03-30T07:36:07.259Z,983.41
2023-03-30T07:37:07.710Z,983.43
2023-03-30T07:38:07.136Z,983.42
2023-03-30T07:39:07.208Z,983.49
2023-03-30T07:40:07.174Z,983.55
2023-03-30T07:41:07.139Z,983.57
2023-03-30T07:42:07.111Z,983.58
2023-03-30T07:43:07.128Z,983.64
2023-03-30T07:44:07.118Z,983.61
2023-03-30T07:45:07.159Z,983.63
2023-03-30T07:46:07.127Z,983.60
2023-03-30T07:47:07.125Z,983.60
2023-03-30T07:48:07.132Z,983.56
2023-03-30T07:49:07.088Z,983.54
2023-03-30T07:50:07.088Z,983.51
2023-03-30T07:51:07.042Z,983.52
2023-03-30T07:52:07.029Z,983.50
2023-03-30T07:53:07.004Z,983.54
2023-03-30T07:54:07.023Z,983.55
2023-03-30T07:55:06.988Z,983.49
2023-03-30T07:56:06.976Z,983.55
2023-03-30T07:57:07.009Z,983.54
2023-03-30T07:58:06.965Z,983.58
2023-03-30T07:59:06.977Z,983.57
2023-03-30T08:00:06.967Z,983.57
2023-03-30T08:01:07.051Z,983.60
2023-03-30T08:02:06.927Z,983.65
2023-03-30T08:03:06.987Z,983.68
2023-03-30T08:04:06.984Z,983.68
2023-03-30T08:05:06.996Z,983.68
2023-03-30T08:06:06.886Z,983.74
2023-03-30T08:07:06.922Z,983.68
2023-03-30T08:08:06.897Z,983.69
2023-03-30T08:09:06.885Z,983.69
2023-03-30T08:10:06.884Z,983.67
2023-03-30T08:11:06.924Z,983.66
2023-03-30T08:12:06.861Z,983.67
2023-03-30T08:13:06.878Z,983.75
2023-03-30T08:14:06.843Z,983.80
2023-03-30T08:15:06.818Z,983.84
2023-03-30T08:16:06.880Z,983.91
2023-03-30T08:17:06.824Z,983.92
2023-03-30T08:18:06.863Z,984.01
2023-03-30T08:19:06.841Z,984.00
2023-03-30T08:20:06.794Z,984.05
2023-03-30T08:21:06.987Z,984.05
2023-03-30T08:22:06.821Z,983.99
2023-03-30T08:23:06.757Z,984.04
2023-03-30T08:24:06.796Z,984.02
2023-03-30T08:25:06.782Z,984.03
2023-03-30T08:26:06.738Z,983.98
2023-03-30T08:27:06.750Z,984.05
2023-03-30T08:28:06.726Z,984.05
2023-03-30T08:29:06.716Z,983.97
2023-03-30T08:30:06.709Z,984.04
2023-03-30T08:31:06.998Z,983.98
2023-03-30T08:32:06.869Z,983.90
2023-03-30T08:33:06.947Z,983.94
2023-03-30T08:34:06.707Z,983.92
2023-03-30T08:35:06.663Z,983.95
2023-03-30T08:36:06.762Z,983.90
2023-03-30T08:37:06.667Z,983.87
2023-03-30T08:38:06.681Z,983.87
2023-03-30T08:39:06.652Z,983.91
2023-03-30T08:40:06.632Z,983.91
2023-03-30T08:41:06.959Z,983.97
2023-03-30T08:42:06.594Z,983.97
2023-03-30T08:43:06.819Z,983.94
2023-03-30T08:44:06.606Z,983.93
2023-03-30T08:45:06.628Z,983.98
2023-03-30T08:46:06.586Z,983.93
2023-03-30T08:47:06.579Z,983.86
2023-03-30T08:48:06.678Z,983.77
2023-03-30T08:49:06.555Z,983.67
2023-03-30T08:50:06.526Z,983.58
2023-03-30T08:51:06.806Z,983.50
2023-03-30T08:52:06.531Z,983.46
2023-03-30T08:53:06.590Z,983.34
2023-03-30T08:54:06.528Z,983.36
2023-03-30T08:55:06.484Z,983.30
2023-03-30T08:56:06.517Z,983.24
2023-03-30T08:57:06.529Z,983.22
2023-03-30T08:58:06.498Z,983.23
2023-03-30T08:59:06.482Z,983.23
2023-03-30T09:00:06.452Z,983.22
2023-03-30T09:01:06.768Z,983.23
2023-03-30T09:02:06.441Z,983.33
2023-03-30T09:03:06.486Z,983.33
2023-03-30T09:04:06.626Z,983.34
2023-03-30T09:05:06.400Z,983.40
2023-03-30T09:06:06.414Z,983.44
2023-03-30T09:07:06.421Z,983.51
2023-03-30T09:08:06.357Z,983.49
2023-03-30T09:09:06.410Z,983.58
2023-03-30T09:10:06.402Z,983.62
2023-03-30T09:11:06.553Z,983.57
2023-03-30T09:12:06.379Z,983.56
2023-03-30T09:13:06.356Z,983.52
2023-03-30T09:14:06.353Z,983.68
2023-03-30T09:15:06.537Z,983.80
2023-03-30T09:16:06.309Z,983.88
2023-03-30T09:17:06.321Z,983.85
2023-03-30T09:18:06.336Z,983.86
2023-03-30T09:19:06.266Z,983.84
2023-03-30T09:20:06.251Z,983.91
2023-03-30T09:21:06.762Z,983.85
2023-03-30T09:22:06.264Z,983.80
2023-03-30T09:23:06.242Z,983.75
2023-03-30T09:24:06.219Z,983.73
2023-03-30T09:25:06.245Z,983.73
2023-03-30T09:26:06.424Z,983.75
2023-03-30T09:27:06.214Z,983.86
2023-03-30T09:28:06.396Z,983.83
2023-03-30T09:29:06.203Z,983.76
2023-03-30T09:30:06.246Z,983.81
2023-03-30T09:31:06.492Z,983.85
2023-03-30T09:32:06.191Z,983.85
2023-03-30T09:33:06.176Z,983.91
2023-03-30T09:34:08.771Z,983.87
2023-03-30T09:35:06.130Z,983.86
2023-03-30T09:36:06.356Z,983.92
2023-03-30T09:37:06.143Z,983.95
2023-03-30T09:38:06.149Z,983.97
2023-03-30T09:39:06.097Z,983.99
2023-03-30T09:40:06.099Z,983.91
2023-03-30T09:41:06.272Z,983.86
2023-03-30T09:42:06.094Z,983.85
2023-03-30T09:43:06.106Z,983.87
2023-03-30T09:44:06.104Z,983.87
2023-03-30T09:45:06.067Z,983.75
2023-03-30T09:46:06.409Z,983.82
2023-03-30T09:47:06.031Z,983.76
2023-03-30T09:48:06.114Z,983.87
2023-03-30T09:49:06.086Z,983.85
2023-03-30T09:50:06.012Z,983.81
2023-03-30T09:51:06.021Z,983.84
2023-03-30T09:52:06.006Z,983.82
2023-03-30T09:53:05.994Z,983.86
2023-03-30T09:54:05.977Z,983.77
2023-03-30T09:55:06.179Z,983.74
2023-03-30T09:56:06.117Z,983.70
2023-03-30T09:57:06.053Z,983.65
2023-03-30T09:58:05.946Z,983.68
2023-03-30T09:59:05.959Z,983.57
2023-03-30T10:00:05.935Z,983.54
2023-03-30T10:01:05.976Z,983.57
2023-03-30T10:02:06.884Z,983.49
2023-03-30T10:03:06.043Z,983.55
2023-03-30T10:04:06.149Z,983.60
2023-03-30T10:05:05.894Z,983.63
2023-03-30T10:06:06.233Z,983.69
2023-03-30T10:07:18.099Z,983.66
2023-03-30T10:08:05.879Z,983.60
2023-03-30T10:09:05.919Z,983.62
2023-03-30T10:10:05.886Z,983.62
2023-03-30T10:11:05.911Z,983.62
2023-03-30T10:12:05.935Z,983.63
2023-03-30T10:13:05.884Z,983.66
2023-03-30T10:14:05.895Z,983.67
2023-03-30T10:15:05.893Z,983.58
2023-03-30T10:16:05.938Z,983.65
2023-03-30T10:17:05.873Z,983.51
2023-03-30T10:18:06.040Z,983.59
2023-03-30T10:19:05.802Z,983.54
2023-03-30T10:20:13.693Z,983.54
2023-03-30T10:21:05.842Z,983.52
2023-03-30T10:22:05.812Z,983.54
2023-03-30T10:23:05.813Z,983.53
2023-03-30T10:24:05.771Z,983.47
2023-03-30T10:25:08.042Z,983.52
2023-03-30T10:26:05.900Z,983.47
2023-03-30T10:27:05.756Z,983.47
2023-03-30T10:28:05.744Z,983.43
2023-03-30T10:29:05.792Z,983.46
2023-03-30T10:30:05.738Z,983.43
2023-03-30T10:31:05.789Z,983.47
2023-03-30T10:32:05.764Z,983.50
2023-03-30T10:33:05.783Z,983.50
2023-03-30T10:34:05.735Z,983.40
2023-03-30T10:35:05.753Z,983.29
2023-03-30T10:36:05.963Z,983.32
2023-03-30T10:37:05.704Z,983.36
2023-03-30T10:38:05.674Z,983.30
2023-03-30T10:39:05.675Z,983.30
2023-03-30T10:40:05.652Z,983.28
2023-03-30T10:41:05.661Z,983.36
2023-03-30T10:42:05.647Z,983.21
2023-03-30T10:43:05.637Z,983.25
2023-03-30T10:44:05.654Z,983.28
2023-03-30T10:45:05.878Z,983.25
2023-03-30T10:46:18.395Z,983.24
2023-03-30T10:47:05.675Z,983.14
2023-03-30T10:48:05.681Z,983.16
2023-03-30T10:49:05.619Z,983.22
2023-03-30T10:50:05.623Z,983.15
2023-03-30T10:51:05.625Z,983.16
2023-03-30T10:52:05.596Z,983.18
2023-03-30T10:53:05.581Z,983.15
2023-03-30T10:54:05.605Z,983.20
2023-03-30T10:55:05.575Z,983.19
2023-03-30T10:56:05.799Z,983.19
2023-03-30T10:57:05.616Z,983.16
2023-03-30T10:58:05.578Z,983.12
2023-03-30T10:59:05.596Z,983.21
2023-03-30T11:00:05.546Z,983.12
2023-03-30T11:01:05.621Z,983.07
2023-03-30T11:02:05.569Z,983.01
2023-03-30T11:03:05.626Z,983.08
2023-03-30T11:04:20.551Z,983.09
2023-03-30T11:05:05.538Z,983.16
2023-03-30T11:06:05.771Z,983.09
2023-03-30T11:07:05.504Z,983.10
2023-03-30T11:08:05.513Z,983.04
2023-03-30T11:09:05.479Z,983.14
2023-03-30T11:10:05.498Z,983.08
2023-03-30T11:11:05.490Z,983.11
2023-03-30T11:12:05.481Z,983.19
2023-03-30T11:13:05.465Z,983.18
2023-03-30T11:14:05.504Z,983.15
2023-03-30T11:15:05.445Z,983.11
2023-03-30T11:16:05.764Z,983.02
2023-03-30T11:17:05.529Z,983.06
2023-03-30T11:18:05.481Z,983.06
2023-03-30T11:19:05.491Z,982.98
2023-03-30T11:20:05.453Z,982.95
2023-03-30T11:21:05.400Z,982.91
2023-03-30T11:22:05.428Z,982.91
2023-03-30T11:23:05.455Z,982.90
2023-03-30T11:24:05.388Z,983.03
2023-03-30T11:25:05.373Z,982.89
2023-03-30T11:26:05.593Z,982.87
2023-03-30T11:27:05.405Z,982.88
2023-03-30T11:28:05.402Z,982.81
2023-03-30T11:29:05.376Z,982.95
2023-03-30T11:30:05.368Z,982.78
2023-03-30T11:31:05.367Z,982.89
2023-03-30T11:32:05.432Z,982.80
2023-03-30T11:33:05.406Z,982.90
2023-03-30T11:34:05.349Z,982.86
2023-03-30T11:35:05.362Z,982.89
2023-03-30T11:36:05.621Z,982.82
2023-03-30T11:37:05.355Z,982.75
2023-03-30T11:38:05.303Z,982.71
2023-03-30T11:39:05.910Z,982.69
2023-03-30T11:40:05.378Z,982.71
2023-03-30T11:41:05.279Z,982.72
2023-03-30T11:42:05.286Z,982.67
2023-03-30T11:43:05.276Z,982.62
2023-03-30T11:44:05.272Z,982.52
2023-03-30T11:45:05.289Z,982.56
2023-03-30T11:46:05.542Z,982.63
2023-03-30T11:47:05.299Z,982.53
2023-03-30T11:48:05.359Z,982.56
2023-03-30T11:49:05.305Z,982.56
2023-03-30T11:50:05.282Z,982.49
2023-03-30T11:51:05.470Z,982.54
2023-03-30T11:52:05.348Z,982.54
2023-03-30T11:53:05.244Z,982.53
2023-03-30T11:54:05.272Z,982.59
2023-03-30T11:55:05.253Z,982.55
2023-03-30T11:56:05.516Z,982.60
2023-03-30T11:57:05.324Z,982.62
2023-03-30T11:58:06.804Z,982.66
2023-03-30T11:59:05.196Z,982.59
2023-03-30T12:00:05.232Z,982.56
2023-03-30T12:01:05.361Z,982.52
2023-03-30T12:02:05.245Z,982.61
2023-03-30T12:03:05.345Z,982.59
2023-03-30T12:04:05.207Z,982.60
2023-03-30T12:05:05.255Z,982.50
2023-03-30T12:06:05.396Z,982.49
2023-03-30T12:07:05.180Z,982.46
2023-03-30T12:08:05.173Z,982.43
2023-03-30T12:09:05.171Z,982.47
2023-03-30T12:10:07.520Z,982.47
2023-03-30T12:11:05.397Z,982.41
2023-03-30T12:12:05.152Z,982.43
2023-03-30T12:13:05.143Z,982.41
2023-03-30T12:14:05.146Z,982.41
2023-03-30T12:15:05.124Z,982.42
2023-03-30T12:16:05.591Z,982.31
2023-03-30T12:17:05.133Z,982.35
2023-03-30T12:18:05.133Z,982.35
2023-03-30T12:19:05.567Z,982.27
2023-03-30T12:20:05.178Z,982.28
2023-03-30T12:21:05.134Z,982.29
2023-03-30T12:22:05.109Z,982.32
2023-03-30T12:23:05.091Z,982.26
2023-03-30T12:24:05.139Z,982.28
2023-03-30T12:25:05.121Z,982.20
2023-03-30T12:26:05.335Z,982.21
2023-03-30T12:27:07.058Z,982.20
2023-03-30T12:28:05.097Z,982.30